createdAt,value
2019-03-30T00:00:55.864Z,14.20
2019-03-30T00:01:55.558Z,14.40
2019-03-30T00:02:55.608Z,13.90
2019-03-30T00:03:55.575Z,12.90
2019-03-30T00:04:55.577Z,13.70
2019-03-30T00:05:55.568Z,23.70
2019-03-30T00:06:55.590Z,25.70
2019-03-30T00:07:55.578Z,21.20
2019-03-30T00:08:55.621Z,18.60
2019-03-30T00:09:55.733Z,22.80
2019-03-30T00:10:55.601Z,22.00
2019-03-30T00:11:57.836Z,16.10
2019-03-30T00:12:55.629Z,14.30
2019-03-30T00:13:55.656Z,13.40
2019-03-30T00:14:56.280Z,12.50
2019-03-30T00:15:55.608Z,12.10
2019-03-30T00:16:55.654Z,13.10
2019-03-30T00:17:55.627Z,12.60
2019-03-30T00:18:55.657Z,12.80
2019-03-30T00:19:56.807Z,20.90
2019-03-30T00:20:55.663Z,22.50
2019-03-30T00:21:55.678Z,25.80
2019-03-30T00:22:55.701Z,25.40
2019-03-30T00:23:55.693Z,18.70
2019-03-30T00:24:55.676Z,15.60
2019-03-30T00:25:55.699Z,14.40
2019-03-30T00:26:55.735Z,14.50
2019-03-30T00:27:55.711Z,14.10
2019-03-30T00:28:55.721Z,15.50
2019-03-30T00:29:55.685Z,12.90
2019-03-30T00:30:55.747Z,12.00
2019-03-30T00:31:55.711Z,11.50
2019-03-30T00:32:55.736Z,15.70
2019-03-30T00:33:55.756Z,16.80
2019-03-30T00:34:55.735Z,22.10
2019-03-30T00:35:55.736Z,15.00
2019-03-30T00:36:55.752Z,16.30
2019-03-30T00:37:55.741Z,20.70
2019-03-30T00:38:55.749Z,17.10
2019-03-30T00:39:56.850Z,13.10
2019-03-30T00:40:55.771Z,11.50
2019-03-30T00:41:55.737Z,12.10
2019-03-30T00:42:56.026Z,24.30
2019-03-30T00:43:55.793Z,18.40
2019-03-30T00:44:55.828Z,14.50
2019-03-30T00:45:55.795Z,14.00
2019-03-30T00:46:55.925Z,14.90
2019-03-30T00:47:56.791Z,24.50
2019-03-30T00:48:55.874Z,18.80
2019-03-30T00:49:55.975Z,17.00
2019-03-30T00:50:56.743Z,18.80
2019-03-30T00:51:55.809Z,23.20
2019-03-30T00:52:55.856Z,28.90
2019-03-30T00:53:55.825Z,24.30
2019-03-30T00:54:55.854Z,22.30
2019-03-30T00:55:55.831Z,25.40
2019-03-30T00:56:55.874Z,19.80
2019-03-30T00:57:55.846Z,16.40
2019-03-30T00:58:55.900Z,16.20
2019-03-30T00:59:55.942Z,14.60
2019-03-30T01:00:55.868Z,12.90
2019-03-30T01:01:55.952Z,12.20
2019-03-30T01:02:55.858Z,12.80
2019-03-30T01:03:55.860Z,12.70
2019-03-30T01:04:55.947Z,19.50
2019-03-30T01:05:58.213Z,24.40
2019-03-30T01:06:55.905Z,20.80
2019-03-30T01:07:55.887Z,15.60
2019-03-30T01:08:55.907Z,13.60
2019-03-30T01:09:55.914Z,14.40
2019-03-30T01:10:55.904Z,13.30
2019-03-30T01:11:55.899Z,14.20
2019-03-30T01:12:55.929Z,13.30
2019-03-30T01:13:55.916Z,12.50
2019-03-30T01:14:56.945Z,13.20
2019-03-30T01:15:55.928Z,14.30
2019-03-30T01:16:56.201Z,12.60
2019-03-30T01:17:56.028Z,12.50
2019-03-30T01:18:56.154Z,14.00
2019-03-30T01:20:02.815Z,14.00
2019-03-30T01:20:55.935Z,14.90
2019-03-30T01:21:56.306Z,17.20
2019-03-30T01:22:56.653Z,16.20
2019-03-30T01:23:56.006Z,17.10
2019-03-30T01:24:56.005Z,15.70
2019-03-30T01:25:55.966Z,13.50
2019-03-30T01:26:56.040Z,13.20
2019-03-30T01:27:56.021Z,14.30
2019-03-30T01:28:56.018Z,13.50
2019-03-30T01:29:55.985Z,14.10
2019-03-30T01:30:55.995Z,14.60
2019-03-30T01:31:56.010Z,12.60
2019-03-30T01:32:56.056Z,12.70
2019-03-30T01:33:56.039Z,12.00
2019-03-30T01:34:56.070Z,12.20
2019-03-30T01:35:56.028Z,12.60
2019-03-30T01:36:56.026Z,12.10
2019-03-30T01:37:56.048Z,12.60
2019-03-30T01:38:56.097Z,13.90
2019-03-30T01:39:56.033Z,13.50
2019-03-30T01:40:56.058Z,13.50
2019-03-30T01:41:56.059Z,13.60
2019-03-30T01:42:56.065Z,13.10
2019-03-30T01:43:56.063Z,12.20
2019-03-30T01:44:56.113Z,13.00
2019-03-30T01:45:56.092Z,14.20
2019-03-30T01:46:56.097Z,15.60
2019-03-30T01:47:56.083Z,31.00
2019-03-30T01:48:56.126Z,19.90
2019-03-30T01:49:56.116Z,14.30
2019-03-30T01:50:56.112Z,14.00
2019-03-30T01:51:56.110Z,13.80
2019-03-30T01:52:56.129Z,14.00
2019-03-30T01:53:56.152Z,14.60
2019-03-30T01:54:56.135Z,14.90
2019-03-30T01:55:56.148Z,14.00
2019-03-30T01:56:56.166Z,14.50
2019-03-30T01:57:56.227Z,14.30
2019-03-30T01:58:56.299Z,15.30
2019-03-30T01:59:56.183Z,14.40
2019-03-30T02:00:56.427Z,15.80
2019-03-30T02:01:56.182Z,14.30
2019-03-30T02:02:56.175Z,14.50
2019-03-30T02:03:56.208Z,15.10
2019-03-30T02:04:56.277Z,15.10
2019-03-30T02:05:56.260Z,16.60
2019-03-30T02:06:56.222Z,15.70
2019-03-30T02:07:58.942Z,15.80
2019-03-30T02:08:56.197Z,16.30
2019-03-30T02:09:56.195Z,16.80
2019-03-30T02:10:56.260Z,15.90
2019-03-30T02:11:56.248Z,14.70
2019-03-30T02:12:56.258Z,15.80
2019-03-30T02:13:56.288Z,17.10
2019-03-30T02:14:56.227Z,17.60
2019-03-30T02:15:56.230Z,15.80
2019-03-30T02:16:56.334Z,16.00
2019-03-30T02:17:56.280Z,16.20
2019-03-30T02:18:56.252Z,16.30
2019-03-30T02:19:56.249Z,15.60
2019-03-30T02:20:56.373Z,14.60
2019-03-30T02:21:56.323Z,15.70
2019-03-30T02:22:56.296Z,15.10
2019-03-30T02:23:56.292Z,16.00
2019-03-30T02:24:56.307Z,15.50
2019-03-30T02:25:56.318Z,14.50
2019-03-30T02:26:56.317Z,13.50
2019-03-30T02:27:56.425Z,14.20
2019-03-30T02:28:56.349Z,14.50
2019-03-30T02:29:56.314Z,15.40
2019-03-30T02:30:56.341Z,15.40
2019-03-30T02:31:56.372Z,14.60
2019-03-30T02:32:56.350Z,13.90
2019-03-30T02:33:56.359Z,14.00
2019-03-30T02:34:56.362Z,14.00
2019-03-30T02:35:56.361Z,13.90
2019-03-30T02:36:56.370Z,14.60
2019-03-30T02:37:56.371Z,13.10
2019-03-30T02:38:56.403Z,13.70
2019-03-30T02:39:56.374Z,13.90
2019-03-30T02:40:56.341Z,13.10
2019-03-30T02:41:56.401Z,12.80
2019-03-30T02:42:56.402Z,12.90
2019-03-30T02:43:56.406Z,13.60
2019-03-30T02:44:56.379Z,13.90
2019-03-30T02:45:56.395Z,15.60
2019-03-30T02:46:56.427Z,14.70
2019-03-30T02:47:56.428Z,14.40
2019-03-30T02:48:56.443Z,15.00
2019-03-30T02:49:56.426Z,13.50
2019-03-30T02:50:56.446Z,13.80
2019-03-30T02:51:56.428Z,15.60
2019-03-30T02:52:56.431Z,16.60
2019-03-30T02:53:56.428Z,13.80
2019-03-30T02:54:56.442Z,14.50
2019-03-30T02:55:56.464Z,13.90
2019-03-30T02:56:56.448Z,15.10
2019-03-30T02:57:56.436Z,15.30
2019-03-30T02:58:56.453Z,14.20
2019-03-30T02:59:56.454Z,16.10
2019-03-30T03:00:56.458Z,16.40
2019-03-30T03:01:56.469Z,15.50
2019-03-30T03:02:56.446Z,14.60
2019-03-30T03:03:56.489Z,15.50
2019-03-30T03:04:56.477Z,15.40
2019-03-30T03:05:56.480Z,14.90
2019-03-30T03:06:56.517Z,14.90
2019-03-30T03:07:56.526Z,12.50
2019-03-30T03:08:56.497Z,13.60
2019-03-30T03:09:56.505Z,14.40
2019-03-30T03:10:56.527Z,16.20
2019-03-30T03:11:56.548Z,15.80
2019-03-30T03:12:56.524Z,13.20
2019-03-30T03:13:56.554Z,13.40
2019-03-30T03:14:56.531Z,13.20
2019-03-30T03:15:56.543Z,12.80
2019-03-30T03:16:56.536Z,12.50
2019-03-30T03:17:56.537Z,13.40
2019-03-30T03:18:56.530Z,14.10
2019-03-30T03:19:57.340Z,15.10
2019-03-30T03:21:07.615Z,13.80
2019-03-30T03:21:56.870Z,13.10
2019-03-30T03:22:56.854Z,13.30
2019-03-30T03:23:56.646Z,13.90
2019-03-30T03:24:56.577Z,15.50
2019-03-30T03:25:56.579Z,15.40
2019-03-30T03:26:56.603Z,16.10
2019-03-30T03:27:56.610Z,15.80
2019-03-30T03:28:56.607Z,17.10
2019-03-30T03:29:56.595Z,16.00
2019-03-30T03:30:56.631Z,14.70
2019-03-30T03:31:56.615Z,13.90
2019-03-30T03:32:56.632Z,15.20
2019-03-30T03:33:56.629Z,15.40
2019-03-30T03:34:56.785Z,16.60
2019-03-30T03:35:56.708Z,14.50
2019-03-30T03:36:56.615Z,14.30
2019-03-30T03:37:56.710Z,16.30
2019-03-30T03:38:56.626Z,16.20
2019-03-30T03:39:56.642Z,15.40
2019-03-30T03:40:56.694Z,16.00
2019-03-30T03:41:56.632Z,16.30
2019-03-30T03:42:56.722Z,15.10
2019-03-30T03:43:56.647Z,14.30
2019-03-30T03:44:56.649Z,14.40
2019-03-30T03:45:56.650Z,15.40
2019-03-30T03:46:56.681Z,14.60
2019-03-30T03:47:56.675Z,14.60
2019-03-30T03:48:56.694Z,15.30
2019-03-30T03:49:56.682Z,17.50
2019-03-30T03:50:56.867Z,16.00
2019-03-30T03:51:56.783Z,14.60
2019-03-30T03:52:56.762Z,15.10
2019-03-30T03:53:57.000Z,15.10
2019-03-30T03:54:56.895Z,17.10
2019-03-30T03:55:56.813Z,17.30
2019-03-30T03:56:56.806Z,17.50
2019-03-30T03:57:56.725Z,16.70
2019-03-30T03:58:56.758Z,18.30
2019-03-30T03:59:56.740Z,18.20
2019-03-30T04:00:56.795Z,18.10
2019-03-30T04:01:56.757Z,16.30
2019-03-30T04:02:56.770Z,15.00
2019-03-30T04:03:56.804Z,16.40
2019-03-30T04:04:56.774Z,16.40
2019-03-30T04:05:56.780Z,16.50
2019-03-30T04:06:56.767Z,16.80
2019-03-30T04:07:56.793Z,17.00
2019-03-30T04:08:56.818Z,17.30
2019-03-30T04:09:56.827Z,15.50
2019-03-30T04:10:56.810Z,15.30
2019-03-30T04:11:56.791Z,15.80
2019-03-30T04:12:56.795Z,13.70
2019-03-30T04:13:56.829Z,14.90
2019-03-30T04:14:56.905Z,15.60
2019-03-30T04:15:56.827Z,16.90
2019-03-30T04:16:56.904Z,17.50
2019-03-30T04:17:56.820Z,15.10
2019-03-30T04:18:56.848Z,14.20
2019-03-30T04:19:56.907Z,16.00
2019-03-30T04:20:56.935Z,15.40
2019-03-30T04:21:56.854Z,15.30
2019-03-30T04:22:56.853Z,14.70
2019-03-30T04:23:56.855Z,14.40
2019-03-30T04:24:56.868Z,14.50
2019-03-30T04:25:56.833Z,14.30
2019-03-30T04:26:56.856Z,14.50
2019-03-30T04:27:56.878Z,15.30
2019-03-30T04:28:56.884Z,14.50
2019-03-30T04:29:57.138Z,14.80
2019-03-30T04:30:56.884Z,14.10
2019-03-30T04:31:56.879Z,14.80
2019-03-30T04:32:56.879Z,14.40
2019-03-30T04:33:56.885Z,14.50
2019-03-30T04:34:56.889Z,13.90
2019-03-30T04:35:56.927Z,13.70
2019-03-30T04:36:56.891Z,13.90
2019-03-30T04:37:57.230Z,15.10
2019-03-30T04:38:56.941Z,15.60
2019-03-30T04:39:56.950Z,16.30
2019-03-30T04:40:56.923Z,14.40
2019-03-30T04:41:56.961Z,16.30
2019-03-30T04:42:56.950Z,17.90
2019-03-30T04:43:56.932Z,18.30
2019-03-30T04:44:56.935Z,19.50
2019-03-30T04:45:57.839Z,19.30
2019-03-30T04:46:56.994Z,17.50
2019-03-30T04:47:56.960Z,16.70
2019-03-30T04:48:57.085Z,16.30
2019-03-30T04:49:56.991Z,16.90
2019-03-30T04:50:56.988Z,16.20
2019-03-30T04:51:58.105Z,15.70
2019-03-30T04:52:56.966Z,16.80
2019-03-30T04:53:57.457Z,17.30
2019-03-30T04:54:56.981Z,19.60
2019-03-30T04:55:57.019Z,19.00
2019-03-30T04:56:57.170Z,19.10
2019-03-30T04:57:57.775Z,18.10
2019-03-30T04:58:57.096Z,16.70
2019-03-30T04:59:57.172Z,15.30
2019-03-30T05:00:57.032Z,15.70
2019-03-30T05:01:57.010Z,16.20
2019-03-30T05:02:57.040Z,16.30
2019-03-30T05:03:57.169Z,17.60
2019-03-30T05:04:57.040Z,18.10
2019-03-30T05:05:57.034Z,17.00
2019-03-30T05:06:57.297Z,16.90
2019-03-30T05:07:57.126Z,18.70
2019-03-30T05:08:57.043Z,17.70
2019-03-30T05:09:57.142Z,19.40
2019-03-30T05:10:57.047Z,18.50
2019-03-30T05:11:57.362Z,17.80
2019-03-30T05:12:57.127Z,17.80
2019-03-30T05:13:57.110Z,18.50
2019-03-30T05:14:57.098Z,18.60
2019-03-30T05:15:57.092Z,18.40
2019-03-30T05:16:58.320Z,18.00
2019-03-30T05:17:57.093Z,18.50
2019-03-30T05:18:57.099Z,18.40
2019-03-30T05:19:57.123Z,19.00
2019-03-30T05:20:57.119Z,16.90
2019-03-30T05:22:11.034Z,18.40
2019-03-30T05:22:57.111Z,19.10
2019-03-30T05:23:57.195Z,17.40
2019-03-30T05:24:57.169Z,17.40
2019-03-30T05:25:57.152Z,16.80
2019-03-30T05:26:57.275Z,16.70
2019-03-30T05:27:57.148Z,18.20
2019-03-30T05:28:57.174Z,17.80
2019-03-30T05:29:57.182Z,17.50
2019-03-30T05:30:57.209Z,16.90
2019-03-30T05:31:57.178Z,18.40
2019-03-30T05:33:05.689Z,17.00
2019-03-30T05:33:57.163Z,17.20
2019-03-30T05:34:57.189Z,16.70
2019-03-30T05:35:57.219Z,15.60
2019-03-30T05:36:57.173Z,16.20
2019-03-30T05:37:57.210Z,15.70
2019-03-30T05:38:57.171Z,15.10
2019-03-30T05:39:57.194Z,16.50
2019-03-30T05:40:57.226Z,16.10
2019-03-30T05:41:57.197Z,15.90
2019-03-30T05:42:57.252Z,15.70
2019-03-30T05:43:57.793Z,16.00
2019-03-30T05:44:57.930Z,14.70
2019-03-30T05:45:57.230Z,15.10
2019-03-30T05:46:57.250Z,15.10
2019-03-30T05:47:57.249Z,14.80
2019-03-30T05:48:57.266Z,14.90
2019-03-30T05:49:57.235Z,15.40
2019-03-30T05:50:57.249Z,14.90
2019-03-30T05:51:57.314Z,14.30
2019-03-30T05:52:57.272Z,13.80
2019-03-30T05:53:57.255Z,15.30
2019-03-30T05:54:57.276Z,14.40
2019-03-30T05:55:57.293Z,14.00
2019-03-30T05:56:57.290Z,13.10
2019-03-30T05:57:57.286Z,14.20
2019-03-30T05:58:57.286Z,13.50
2019-03-30T05:59:57.296Z,13.00
2019-03-30T06:00:57.310Z,12.40
2019-03-30T06:01:57.333Z,12.80
2019-03-30T06:02:57.334Z,13.10
2019-03-30T06:03:57.318Z,12.70
2019-03-30T06:04:58.676Z,12.50
2019-03-30T06:05:57.360Z,12.30
2019-03-30T06:06:57.351Z,11.20
2019-03-30T06:07:57.391Z,11.40
2019-03-30T06:08:57.462Z,11.00
2019-03-30T06:09:57.544Z,12.90
2019-03-30T06:10:57.563Z,13.20
2019-03-30T06:11:57.373Z,11.70
2019-03-30T06:12:57.469Z,12.30
2019-03-30T06:13:57.494Z,11.50
2019-03-30T06:14:57.614Z,11.70
2019-03-30T06:15:57.423Z,12.70
2019-03-30T06:16:57.514Z,13.20
2019-03-30T06:17:57.421Z,13.20
2019-03-30T06:18:57.491Z,14.80
2019-03-30T06:19:57.479Z,17.10
2019-03-30T06:20:57.427Z,17.80
2019-03-30T06:21:57.464Z,15.30
2019-03-30T06:22:57.451Z,14.20
2019-03-30T06:23:57.528Z,13.80
2019-03-30T06:24:57.526Z,12.80
2019-03-30T06:25:57.603Z,11.50
2019-03-30T06:26:57.560Z,11.40
2019-03-30T06:27:57.536Z,11.70
2019-03-30T06:28:57.522Z,12.40
2019-03-30T06:29:57.507Z,12.00
2019-03-30T06:30:57.535Z,11.80
2019-03-30T06:31:57.727Z,12.30
2019-03-30T06:32:57.579Z,11.90
2019-03-30T06:33:57.515Z,12.30
2019-03-30T06:34:57.562Z,12.00
2019-03-30T06:35:57.656Z,13.00
2019-03-30T06:36:57.579Z,13.40
2019-03-30T06:37:57.771Z,13.30
2019-03-30T06:38:57.654Z,13.40
2019-03-30T06:39:57.564Z,12.90
2019-03-30T06:40:57.639Z,12.70
2019-03-30T06:41:57.578Z,13.50
2019-03-30T06:42:57.581Z,13.80
2019-03-30T06:43:57.598Z,14.00
2019-03-30T06:44:57.594Z,13.60
2019-03-30T06:45:57.602Z,13.70
2019-03-30T06:46:57.645Z,13.60
2019-03-30T06:47:57.603Z,13.70
2019-03-30T06:48:57.614Z,13.40
2019-03-30T06:49:57.643Z,13.90
2019-03-30T06:50:57.640Z,13.90
2019-03-30T06:51:57.688Z,14.30
2019-03-30T06:52:58.790Z,13.90
2019-03-30T06:53:57.648Z,14.10
2019-03-30T06:54:57.661Z,13.70
2019-03-30T06:55:57.664Z,14.70
2019-03-30T06:56:57.681Z,14.50
2019-03-30T06:57:57.716Z,15.30
2019-03-30T06:58:57.693Z,14.70
2019-03-30T06:59:57.678Z,14.70
2019-03-30T07:00:57.712Z,15.30
2019-03-30T07:01:57.720Z,13.90
2019-03-30T07:02:57.722Z,13.90
2019-03-30T07:03:57.753Z,15.00
2019-03-30T07:04:57.734Z,14.60
2019-03-30T07:05:57.731Z,14.50
2019-03-30T07:06:57.752Z,13.90
2019-03-30T07:07:57.812Z,14.60
2019-03-30T07:08:57.779Z,14.40
2019-03-30T07:09:57.787Z,15.00
2019-03-30T07:10:57.759Z,14.20
2019-03-30T07:11:57.804Z,14.60
2019-03-30T07:12:57.785Z,14.60
2019-03-30T07:13:57.818Z,14.70
2019-03-30T07:14:57.772Z,15.50
2019-03-30T07:15:57.935Z,15.20
2019-03-30T07:16:57.783Z,14.70
2019-03-30T07:17:57.833Z,15.00
2019-03-30T07:18:57.823Z,15.30
2019-03-30T07:19:57.819Z,15.10
2019-03-30T07:20:57.808Z,15.00
2019-03-30T07:21:57.845Z,15.30
2019-03-30T07:23:11.180Z,14.70
2019-03-30T07:23:57.862Z,14.80
2019-03-30T07:24:57.843Z,14.90
2019-03-30T07:25:57.862Z,15.40
2019-03-30T07:26:57.873Z,15.20
2019-03-30T07:27:57.901Z,15.20
2019-03-30T07:28:57.861Z,16.10
2019-03-30T07:29:57.895Z,15.50
2019-03-30T07:30:57.914Z,15.70
2019-03-30T07:31:57.882Z,16.30
2019-03-30T07:32:57.885Z,15.90
2019-03-30T07:33:57.905Z,15.70
2019-03-30T07:34:57.981Z,16.20
2019-03-30T07:35:57.919Z,16.00
2019-03-30T07:36:57.901Z,16.30
2019-03-30T07:37:57.910Z,16.40
2019-03-30T07:38:57.938Z,16.80
2019-03-30T07:39:57.941Z,17.00
2019-03-30T07:40:57.972Z,17.20
2019-03-30T07:41:57.942Z,16.90
2019-03-30T07:42:57.956Z,17.00
2019-03-30T07:43:57.988Z,17.20
2019-03-30T07:44:58.960Z,16.80
2019-03-30T07:45:58.141Z,17.40
2019-03-30T07:46:58.066Z,18.00
2019-03-30T07:47:58.002Z,17.70
2019-03-30T07:48:58.004Z,17.90
2019-03-30T07:49:58.002Z,17.60
2019-03-30T07:50:58.077Z,18.20
2019-03-30T07:51:58.058Z,18.20
2019-03-30T07:52:58.027Z,17.70
2019-03-30T07:53:58.049Z,18.00
2019-03-30T07:54:58.019Z,18.10
2019-03-30T07:56:08.237Z,18.20
2019-03-30T07:57:05.017Z,19.10
2019-03-30T07:57:58.066Z,18.10
2019-03-30T07:58:58.072Z,18.70
2019-03-30T07:59:58.054Z,18.70
2019-03-30T08:00:58.073Z,18.10
2019-03-30T08:01:58.069Z,17.80
2019-03-30T08:02:58.168Z,18.60
2019-03-30T08:03:58.111Z,18.80
2019-03-30T08:04:58.082Z,18.50
2019-03-30T08:05:58.169Z,19.50
2019-03-30T08:06:58.112Z,18.80
2019-03-30T08:07:58.299Z,18.00
2019-03-30T08:08:58.112Z,20.60
2019-03-30T08:09:58.122Z,18.90
2019-03-30T08:10:58.130Z,19.20
2019-03-30T08:11:58.153Z,19.90
2019-03-30T08:12:58.127Z,19.60
2019-03-30T08:13:58.159Z,19.70
2019-03-30T08:14:58.187Z,18.70
2019-03-30T08:15:58.221Z,18.70
2019-03-30T08:17:00.142Z,18.70
2019-03-30T08:17:58.201Z,20.70
2019-03-30T08:18:58.263Z,20.00
2019-03-30T08:19:58.322Z,20.20
2019-03-30T08:20:58.200Z,20.70
2019-03-30T08:21:58.514Z,22.60
2019-03-30T08:22:58.263Z,22.90
2019-03-30T08:23:58.346Z,22.00
2019-03-30T08:24:58.295Z,22.80
2019-03-30T08:25:58.229Z,21.10
2019-03-30T08:26:58.225Z,21.10
2019-03-30T08:27:58.229Z,21.90
2019-03-30T08:28:58.234Z,21.10
2019-03-30T08:29:58.514Z,22.10
2019-03-30T08:30:58.377Z,21.10
2019-03-30T08:31:58.327Z,20.60
2019-03-30T08:32:58.408Z,20.30
2019-03-30T08:33:58.273Z,21.00
2019-03-30T08:34:58.280Z,20.60
2019-03-30T08:35:58.289Z,20.60
2019-03-30T08:36:59.462Z,21.20
2019-03-30T08:37:58.298Z,21.80
2019-03-30T08:38:58.381Z,21.10
2019-03-30T08:39:58.328Z,23.50
2019-03-30T08:40:58.333Z,22.50
2019-03-30T08:41:58.338Z,22.30
2019-03-30T08:42:58.322Z,21.10
2019-03-30T08:43:58.356Z,21.70
2019-03-30T08:44:58.386Z,20.70
2019-03-30T09:03:56.444Z,20.30
2019-03-30T09:04:56.236Z,19.40
2019-03-30T09:05:56.255Z,19.80
2019-03-30T09:06:56.344Z,19.70
2019-03-30T09:07:56.338Z,20.00
2019-03-30T09:08:56.230Z,20.00
2019-03-30T09:09:56.509Z,20.00
2019-03-30T09:10:56.241Z,20.10
2019-03-30T09:11:56.517Z,19.40
2019-03-30T09:12:56.313Z,21.00
2019-03-30T09:13:56.535Z,20.00
2019-03-30T09:14:56.439Z,19.40
2019-03-30T09:15:56.242Z,20.00
2019-03-30T09:16:56.284Z,20.10
2019-03-30T09:17:56.297Z,19.70
2019-03-30T09:18:56.274Z,22.10
2019-03-30T09:19:56.277Z,20.90
2019-03-30T09:20:56.290Z,23.40
2019-03-30T09:21:56.334Z,21.90
2019-03-30T09:22:56.323Z,22.10
2019-03-30T09:24:09.002Z,19.50
2019-03-30T09:24:56.325Z,19.70
2019-03-30T09:25:56.338Z,18.40
2019-03-30T09:26:56.466Z,18.20
2019-03-30T09:27:56.396Z,18.80
2019-03-30T09:28:56.346Z,18.70
2019-03-30T09:29:56.353Z,18.70
2019-03-30T09:30:56.375Z,19.30
2019-03-30T09:31:56.465Z,19.90
2019-03-30T09:32:56.387Z,19.10
2019-03-30T09:33:56.402Z,18.70
2019-03-30T09:34:56.436Z,19.10
2019-03-30T09:35:56.401Z,18.70
2019-03-30T09:36:56.534Z,19.40
2019-03-30T09:37:56.398Z,18.70
2019-03-30T09:38:56.406Z,18.00
2019-03-30T09:39:56.504Z,18.50
2019-03-30T09:40:56.423Z,18.30
2019-03-30T09:41:56.567Z,17.70
2019-03-30T09:42:56.461Z,17.80
2019-03-30T09:43:56.455Z,18.00
2019-03-30T09:44:56.456Z,17.40
2019-03-30T09:45:56.474Z,18.30
2019-03-30T09:46:56.492Z,17.90
2019-03-30T09:47:56.462Z,18.30
2019-03-30T09:48:56.486Z,17.60
2019-03-30T09:49:56.556Z,18.10
2019-03-30T09:50:56.514Z,18.80
2019-03-30T09:51:56.506Z,17.60
2019-03-30T09:52:56.519Z,18.90
2019-03-30T09:53:56.519Z,19.30
2019-03-30T09:54:56.515Z,20.30
2019-03-30T09:55:56.581Z,20.40
2019-03-30T09:56:56.549Z,19.70
2019-03-30T09:57:56.551Z,18.30
2019-03-30T09:58:56.556Z,18.10
2019-03-30T09:59:56.557Z,18.40
2019-03-30T10:00:56.557Z,18.10
2019-03-30T10:01:56.586Z,18.90
2019-03-30T10:02:56.584Z,16.20
2019-03-30T10:03:56.589Z,15.90
2019-03-30T10:04:56.602Z,16.30
2019-03-30T10:05:56.592Z,18.20
2019-03-30T10:06:56.635Z,15.80
2019-03-30T10:07:56.625Z,15.80
2019-03-30T10:08:56.628Z,16.20
2019-03-30T10:09:56.676Z,16.70
2019-03-30T10:10:57.197Z,16.10
2019-03-30T10:11:56.670Z,16.10
2019-03-30T10:12:56.655Z,15.70
2019-03-30T10:13:56.729Z,14.90
2019-03-30T10:14:56.671Z,14.10
2019-03-30T10:15:56.696Z,15.20
2019-03-30T10:16:56.690Z,16.30
2019-03-30T10:17:56.707Z,14.70
2019-03-30T10:18:56.686Z,14.50
2019-03-30T10:20:04.320Z,15.00
2019-03-30T10:20:56.780Z,14.10
2019-03-30T10:21:56.708Z,14.90
2019-03-30T10:22:56.739Z,13.80
2019-03-30T10:23:56.786Z,15.40
2019-03-30T10:24:58.381Z,14.10
2019-03-30T10:25:56.770Z,17.60
2019-03-30T10:26:56.826Z,15.00
2019-03-30T10:27:56.764Z,14.00
2019-03-30T10:28:56.772Z,15.50
2019-03-30T10:29:56.779Z,14.30
2019-03-30T10:30:56.786Z,14.30
2019-03-30T10:31:59.768Z,15.20
2019-03-30T10:32:56.831Z,16.00
2019-03-30T10:33:56.825Z,14.40
2019-03-30T10:34:56.817Z,14.90
2019-03-30T10:35:56.866Z,15.30
2019-03-30T10:36:56.857Z,14.20
2019-03-30T10:37:56.876Z,14.10
2019-03-30T10:38:56.901Z,13.90
2019-03-30T10:39:56.854Z,13.70
2019-03-30T10:40:56.896Z,14.50
2019-03-30T10:41:56.909Z,14.90
2019-03-30T10:42:56.915Z,14.60
2019-03-30T10:43:56.929Z,15.10
2019-03-30T10:44:56.884Z,14.80
2019-03-30T10:45:56.941Z,16.20
2019-03-30T10:46:56.905Z,17.00
2019-03-30T10:47:57.006Z,16.60
2019-03-30T10:48:56.965Z,17.70
2019-03-30T10:49:56.994Z,17.10
2019-03-30T10:50:56.979Z,19.50
2019-03-30T10:51:57.099Z,16.40
2019-03-30T10:52:56.981Z,15.60
2019-03-30T10:53:56.989Z,16.00
2019-03-30T10:54:57.006Z,16.00
2019-03-30T10:55:57.012Z,15.30
2019-03-30T10:56:57.021Z,15.10
2019-03-30T10:57:58.559Z,16.10
2019-03-30T10:58:57.048Z,21.00
2019-03-30T10:59:57.145Z,16.90
2019-03-30T11:00:57.048Z,14.90
2019-03-30T11:01:57.037Z,14.80
2019-03-30T11:02:57.052Z,15.10
2019-03-30T11:03:57.112Z,15.40
2019-03-30T11:04:57.067Z,18.00
2019-03-30T11:05:57.132Z,17.70
2019-03-30T11:06:57.075Z,16.60
2019-03-30T11:07:57.079Z,15.70
2019-03-30T11:08:57.100Z,14.00
2019-03-30T11:09:57.114Z,15.50
2019-03-30T11:10:57.152Z,14.20
2019-03-30T11:11:57.115Z,16.20
2019-03-30T11:12:57.143Z,16.00
2019-03-30T11:13:57.140Z,14.40
2019-03-30T11:14:57.177Z,15.10
2019-03-30T11:15:57.256Z,14.70
2019-03-30T11:16:57.190Z,16.50
2019-03-30T11:17:57.163Z,14.20
2019-03-30T11:18:57.175Z,15.70
2019-03-30T11:19:57.211Z,14.50
2019-03-30T11:20:57.299Z,13.70
2019-03-30T11:21:57.196Z,12.80
2019-03-30T11:22:57.200Z,13.80
2019-03-30T11:23:57.264Z,13.00
2019-03-30T11:25:07.143Z,14.10
2019-03-30T11:25:57.240Z,14.60
2019-03-30T11:26:57.271Z,13.40
2019-03-30T11:27:57.281Z,10.70
2019-03-30T11:28:57.295Z,11.50
2019-03-30T11:29:57.288Z,13.90
2019-03-30T11:30:57.279Z,13.60
2019-03-30T11:31:57.315Z,15.20
2019-03-30T11:32:57.305Z,11.30
2019-03-30T11:33:57.313Z,13.00
2019-03-30T11:34:57.394Z,11.10
2019-03-30T11:35:57.366Z,10.20
2019-03-30T11:36:57.335Z,11.40
2019-03-30T11:37:57.334Z,10.20
2019-03-30T11:38:57.343Z,10.10
2019-03-30T11:39:57.370Z,10.70
2019-03-30T11:40:57.419Z,10.10
2019-03-30T11:41:57.385Z,12.40
2019-03-30T11:42:57.384Z,10.60
2019-03-30T11:43:57.389Z,11.20
2019-03-30T11:44:57.404Z,12.00
2019-03-30T11:45:57.425Z,11.50
2019-03-30T11:46:57.458Z,10.70
2019-03-30T11:47:57.430Z,11.20
2019-03-30T11:48:57.462Z,11.40
2019-03-30T11:49:57.433Z,11.30
2019-03-30T11:50:57.440Z,11.40
2019-03-30T11:51:57.486Z,13.80
2019-03-30T11:52:57.541Z,11.60
2019-03-30T11:53:57.472Z,12.50
2019-03-30T11:54:57.488Z,12.30
2019-03-30T11:55:57.527Z,13.40
2019-03-30T11:56:57.494Z,12.20
2019-03-30T11:57:57.547Z,11.70
2019-03-30T11:58:57.531Z,13.60
2019-03-30T11:59:57.539Z,12.40
2019-03-30T12:00:57.576Z,12.60
2019-03-30T12:01:57.548Z,12.50
2019-03-30T12:02:57.576Z,13.70
2019-03-30T12:03:57.582Z,13.80
2019-03-30T12:04:57.578Z,12.70
2019-03-30T12:05:57.594Z,11.90
2019-03-30T12:06:57.584Z,12.10
2019-03-30T12:07:57.644Z,12.20
2019-03-30T12:08:57.643Z,12.20
2019-03-30T12:09:57.632Z,12.80
2019-03-30T12:10:57.649Z,12.40
2019-03-30T12:11:57.618Z,12.20
2019-03-30T12:12:57.645Z,16.10
2019-03-30T12:13:57.648Z,14.00
2019-03-30T12:14:57.692Z,13.50
2019-03-30T12:15:57.650Z,13.40
2019-03-30T12:16:57.656Z,13.70
2019-03-30T12:17:57.699Z,13.70
2019-03-30T12:18:57.743Z,13.80
2019-03-30T12:19:57.681Z,13.70
2019-03-30T12:20:57.747Z,12.70
2019-03-30T12:21:57.726Z,12.00
2019-03-30T12:22:57.718Z,12.80
2019-03-30T12:23:57.740Z,13.40
2019-03-30T12:24:57.738Z,13.10
2019-03-30T12:25:57.776Z,14.30
2019-03-30T12:26:57.740Z,13.30
2019-03-30T12:27:57.763Z,10.50
2019-03-30T12:28:57.795Z,11.00
2019-03-30T12:29:57.807Z,12.10
2019-03-30T12:30:57.797Z,11.00
2019-03-30T12:31:57.781Z,10.60
2019-03-30T12:32:57.792Z,10.80
2019-03-30T12:33:57.858Z,12.40
2019-03-30T12:34:57.837Z,12.50
2019-03-30T12:35:57.846Z,12.00
2019-03-30T12:36:57.898Z,14.30
2019-03-30T12:37:57.854Z,13.90
2019-03-30T12:38:57.913Z,12.30
2019-03-30T12:39:58.372Z,12.10
2019-03-30T12:40:57.883Z,13.70
2019-03-30T12:41:57.968Z,14.60
2019-03-30T12:42:57.893Z,14.00
2019-03-30T12:43:57.886Z,14.20
2019-03-30T12:44:57.929Z,11.90
2019-03-30T12:45:57.955Z,12.30
2019-03-30T12:46:57.952Z,11.90
2019-03-30T12:47:57.946Z,13.70
2019-03-30T12:48:57.980Z,11.60
2019-03-30T12:49:58.081Z,12.10
2019-03-30T12:50:57.980Z,14.40
2019-03-30T12:51:57.994Z,11.40
2019-03-30T12:52:58.003Z,11.60
2019-03-30T12:53:57.982Z,11.30
2019-03-30T12:54:57.998Z,12.80
2019-03-30T12:55:58.051Z,9.20
2019-03-30T12:56:57.990Z,9.80
2019-03-30T12:57:58.011Z,7.60
2019-03-30T12:58:58.062Z,7.60
2019-03-30T12:59:59.335Z,9.00
2019-03-30T13:00:58.047Z,10.10
2019-03-30T13:01:58.105Z,11.20
2019-03-30T13:02:58.047Z,9.30
2019-03-30T13:03:58.130Z,9.00
2019-03-30T13:04:58.088Z,9.10
2019-03-30T13:05:58.088Z,8.00
2019-03-30T13:06:58.112Z,7.50
2019-03-30T13:07:58.103Z,8.00
2019-03-30T13:08:58.115Z,7.90
2019-03-30T13:09:58.137Z,8.00
2019-03-30T13:10:58.176Z,10.30
2019-03-30T13:11:58.168Z,8.40